Time;durP1;ratioP1;P1;durP2;ratioP2;P2;SDS_P1;SDS_P2;PMS_P1;PMS_P2;Temp;Humidity;BMP_temperature;BMP_pressure;BME280_temperature;BME280_humidity;BME280_pressure;Samples;Min_cycle;Max_cycle;Signal;HPM_P1;HPM_P2
2023/01/26 00:04:57;;;;;;;31.03;14.83;;;1.10;99.90;;;;;;10293678;28;20034;-85
2023/01/26 00:09:58;;;;;;;33.93;16.57;;;1.10;99.90;;;;;;10284570;28;20037;-84
2023/01/26 00:14:58;;;;;;;36.17;17.40;;;1.10;99.90;;;;;;10288703;28;20133;-86
2023/01/26 00:19:59;;;;;;;39.53;19.47;;;1.10;99.90;;;;;;10292027;28;20062;-85
2023/01/26 00:25:00;;;;;;;40.60;18.90;;;1.00;99.90;;;;;;10284896;28;20121;-85
2023/01/26 00:30:01;;;;;;;42.30;20.10;;;1.00;99.90;;;;;;10285385;28;20131;-84
2023/01/26 00:35:03;;;;;;;44.20;19.77;;;1.00;99.90;;;;;;10285410;28;20432;-85
2023/01/26 00:40:04;;;;;;;43.67;21.33;;;1.00;99.90;;;;;;10285143;28;21052;-84
2023/01/26 00:45:05;;;;;;;51.37;22.97;;;1.00;99.90;;;;;;10271099;28;20058;-85
2023/01/26 00:50:06;;;;;;;46.23;21.60;;;1.00;99.90;;;;;;10267875;28;20039;-85
2023/01/26 00:55:07;;;;;;;45.53;21.57;;;0.90;99.90;;;;;;10284010;28;20449;-85
2023/01/26 01:00:12;;;;;;;46.97;22.73;;;0.90;99.90;;;;;;10268842;28;20038;-84
2023/01/26 01:05:12;;;;;;;46.87;22.77;;;1.00;99.90;;;;;;10287514;28;20121;-84
2023/01/26 01:10:13;;;;;;;43.63;22.37;;;1.00;99.90;;;;;;10264244;28;20030;-86
2023/01/26 01:15:14;;;;;;;50.53;23.43;;;1.00;99.90;;;;;;10273529;28;20042;-85
2023/01/26 01:20:14;;;;;;;55.60;25.20;;;1.10;99.90;;;;;;10282512;28;20038;-85
2023/01/26 01:25:15;;;;;;;50.57;23.37;;;1.00;99.90;;;;;;10284785;28;20027;-85
2023/01/26 01:30:15;;;;;;;49.33;23.37;;;1.10;99.90;;;;;;10291399;28;20410;-85
2023/01/26 01:35:16;;;;;;;51.20;25.20;;;1.10;99.90;;;;;;10267109;28;20050;-85
2023/01/26 01:40:17;;;;;;;49.20;24.00;;;1.10;99.90;;;;;;10290844;28;20109;-85
2023/01/26 01:45:39;;;;;;;49.83;24.10;;;1.00;99.90;;;;;;10285541;28;20118;-85
2023/01/26 01:50:41;;;;;;;50.57;23.37;;;1.00;99.90;;;;;;10282416;28;20049;-84
2023/01/26 01:55:42;;;;;;;49.13;21.47;;;1.00;99.90;;;;;;10288339;28;20109;-86
2023/01/26 02:00:42;;;;;;;43.60;20.83;;;1.00;99.90;;;;;;10282949;28;20797;-85
2023/01/26 02:06:15;;;;;;;50.07;21.37;;;1.00;99.90;;;;;;10290392;28;20137;-85
2023/01/26 02:11:22;;;;;;;47.10;22.93;;;1.00;99.90;;;;;;10297584;28;20478;-86
2023/01/26 02:16:22;;;;;;;55.20;25.97;;;1.00;99.90;;;;;;10284758;28;20109;-85
2023/01/26 02:21:23;;;;;;;50.60;24.47;;;1.00;99.90;;;;;;10291782;28;20426;-85
2023/01/26 02:26:26;;;;;;;49.13;22.77;;;1.00;99.90;;;;;;10275767;28;20030;-86
2023/01/26 02:31:27;;;;;;;48.33;23.03;;;1.10;99.90;;;;;;10280802;28;20050;-85
2023/01/26 02:36:30;;;;;;;51.83;24.43;;;1.10;99.90;;;;;;10294997;28;20494;-85
2023/01/26 02:46:51;;;;;;;45.33;20.53;;;1.00;99.90;;;;;;10290279;28;20101;-85
2023/01/26 02:51:52;;;;;;;43.87;22.50;;;1.00;99.90;;;;;;10277453;28;20050;-85
2023/01/26 02:56:52;;;;;;;45.03;22.20;;;0.90;99.90;;;;;;10288570;28;20038;-85
2023/01/26 03:01:55;;;;;;;46.33;23.70;;;0.90;99.90;;;;;;10272755;28;20069;-84
2023/01/26 03:06:55;;;;;;;45.13;21.77;;;0.80;99.90;;;;;;10292592;28;20031;-86
2023/01/26 03:11:56;;;;;;;44.47;22.13;;;0.80;99.90;;;;;;10291148;28;20050;-85
2023/01/26 03:16:56;;;;;;;42.47;21.00;;;0.80;99.90;;;;;;10288648;28;20047;-85
2023/01/26 03:27:25;;;;;;;46.37;21.70;;;0.70;99.90;;;;;;10286901;28;20110;-85
2023/01/26 03:32:26;;;;;;;44.03;23.30;;;0.70;99.90;;;;;;10275989;28;20065;-85
2023/01/26 03:37:27;;;;;;;40.33;19.43;;;0.70;99.90;;;;;;10291722;28;20045;-85
2023/01/26 03:58:32;;;;;;;42.03;21.13;;;0.70;99.90;;;;;;10288199;28;20034;-84
2023/01/26 04:08:52;;;;;;;40.53;20.50;;;0.70;99.90;;;;;;10284385;28;20718;-85
2023/01/26 04:24:31;;;;;;;37.80;18.40;;;0.80;99.90;;;;;;10288047;28;20030;-85
2023/01/26 04:29:32;;;;;;;40.87;18.97;;;;;;;;;;10293192;28;20054;-86
2023/01/26 04:34:33;;;;;;;40.93;21.23;;;0.80;99.90;;;;;;10280768;28;20104;-85
2023/01/26 04:39:33;;;;;;;41.20;20.23;;;0.90;99.90;;;;;;10283539;28;20030;-86
2023/01/26 04:44:34;;;;;;;43.83;22.30;;;0.90;99.90;;;;;;10294936;28;20772;-86
2023/01/26 04:49:34;;;;;;;63.13;25.10;;;0.90;99.90;;;;;;10343457;28;20436;-87
2023/01/26 04:54:35;;;;;;;95.03;35.80;;;0.80;99.90;;;;;;10311722;28;20550;-85
2023/01/26 04:59:36;;;;;;;88.50;33.77;;;0.90;99.90;;;;;;10310642;28;20061;-84
2023/01/26 05:04:36;;;;;;;51.50;21.90;;;0.80;99.90;;;;;;10319192;28;20040;-86
2023/01/26 05:09:37;;;;;;;56.07;24.07;;;0.80;99.90;;;;;;10296501;28;20022;-86
2023/01/26 05:14:37;;;;;;;46.40;23.03;;;0.80;99.90;;;;;;10318730;28;20397;-83
2023/01/26 05:19:38;;;;;;;44.13;20.27;;;0.80;99.90;;;;;;10317184;28;20118;-85
2023/01/26 05:24:38;;;;;;;42.20;19.27;;;0.80;99.90;;;;;;10315306;28;20038;-86
2023/01/26 05:29:39;;;;;;;44.33;20.23;;;0.80;99.90;;;;;;10333384;28;20057;-85
2023/01/26 05:34:40;;;;;;;52.13;22.33;;;0.80;99.90;;;;;;10358857;28;20659;-87
2023/01/26 05:39:40;;;;;;;49.97;22.83;;;0.90;99.90;;;;;;10329084;28;20382;-85
2023/01/26 05:44:41;;;;;;;44.43;20.00;;;0.80;99.90;;;;;;10349615;28;20658;-86
2023/01/26 05:49:42;;;;;;;41.73;19.53;;;0.80;99.90;;;;;;10366725;28;20026;-87
2023/01/26 05:54:43;;;;;;;56.23;25.13;;;0.80;99.90;;;;;;10366543;28;20489;-86
2023/01/26 05:59:43;;;;;;;81.00;34.27;;;0.60;99.90;;;;;;10348890;28;20026;-86
2023/01/26 06:04:44;;;;;;;45.87;22.93;;;0.80;99.90;;;;;;10339513;28;20041;-87
2023/01/26 06:09:44;;;;;;;51.20;22.20;;;0.80;99.90;;;;;;10366706;28;20036;-86
2023/01/26 06:14:45;;;;;;;83.57;37.63;;;0.70;99.90;;;;;;10366076;28;20516;-85
2023/01/26 06:19:46;;;;;;;80.00;36.90;;;0.70;99.90;;;;;;10366155;28;20038;-86
2023/01/26 06:24:47;;;;;;;51.97;26.67;;;;;;;;;;10365418;28;20160;-86
2023/01/26 06:29:47;;;;;;;45.37;21.20;;;0.70;99.90;;;;;;10363918;28;20058;-86
2023/01/26 06:34:48;;;;;;;39.63;20.33;;;;;;;;;;10347368;28;20064;-86
2023/01/26 06:39:49;;;;;;;48.13;23.93;;;;;;;;;;10363074;28;20690;-86
2023/01/26 06:44:50;;;;;;;72.83;30.80;;;;;;;;;;10363167;28;20717;-86
2023/01/26 06:49:52;;;;;;;76.73;35.17;;;;;;;;;;10362594;28;20176;-87
2023/01/26 06:54:53;;;;;;;63.43;30.90;;;;;;;;;;10363175;28;20432;-86
2023/01/26 06:59:56;;;;;;;88.40;49.67;;;;;;;;;;10363148;28;20121;-86
2023/01/26 07:04:57;;;;;;;106.27;49.50;;;;;;;;;;10363916;28;20583;-87
2023/01/26 07:09:57;;;;;;;86.10;41.27;;;1.00;99.90;;;;;;10362642;28;20456;-86
2023/01/26 07:14:58;;;;;;;70.57;30.07;;;0.90;99.90;;;;;;10344968;28;20038;-85
2023/01/26 07:19:58;;;;;;;94.00;43.77;;;1.00;99.90;;;;;;10347111;28;20115;-87
2023/01/26 08:56:34;;;;;;;93.60;40.27;;;1.70;99.90;;;;;;10298712;28;20089;-86
2023/01/26 09:01:35;;;;;;;62.10;29.57;;;1.70;99.90;;;;;;10354272;28;20112;-86
2023/01/26 09:06:36;;;;;;;84.97;40.60;;;1.70;99.90;;;;;;10360302;28;20026;-86
2023/01/26 09:11:37;;;;;;;175.87;70.87;;;1.80;99.90;;;;;;10360307;28;20065;-86
2023/01/26 09:16:38;;;;;;;77.27;34.13;;;1.90;99.90;;;;;;10342266;28;20121;-86
2023/01/26 09:21:39;;;;;;;95.30;37.73;;;1.90;99.90;;;;;;10361146;28;20079;-87
2023/01/26 09:26:39;;;;;;;68.23;31.40;;;1.90;99.90;;;;;;10358811;28;20515;-86
2023/01/26 09:31:40;;;;;;;85.13;38.33;;;2.00;99.90;;;;;;10358385;28;20602;-85
2023/01/26 09:36:40;;;;;;;84.97;38.67;;;2.00;99.90;;;;;;10340768;28;20030;-87
2023/01/26 09:53:23;;;;;;;111.73;53.43;;;2.20;99.90;;;;;;10332103;28;20289;-87
2023/01/26 09:58:34;;;;;;;62.43;29.23;;;2.10;99.90;;;;;;10359123;28;20694;-86
2023/01/26 10:04:22;;;;;;;51.50;24.10;;;2.10;99.90;;;;;;10341187;28;20262;-86
2023/01/26 10:09:31;;;;;;;86.20;45.53;;;2.10;99.90;;;;;;10347733;28;20041;-86
2023/01/26 10:14:43;;;;;;;55.97;32.07;;;2.10;99.90;;;;;;10340548;28;20088;-87
2023/01/26 10:19:53;;;;;;;62.07;31.77;;;2.20;99.90;;;;;;10358638;28;20034;-87
2023/01/26 10:24:56;;;;;;;71.87;38.67;;;2.30;99.90;;;;;;10340472;28;20034;-86
2023/01/26 10:29:57;;;;;;;51.97;27.13;;;2.30;99.90;;;;;;10364054;28;20393;-88
2023/01/26 10:34:57;;;;;;;105.90;62.87;;;2.30;99.90;;;;;;10347735;28;20042;-86
2023/01/26 10:40:06;;;;;;;66.37;31.93;;;2.40;99.90;;;;;;10347545;28;20032;-86
2023/01/26 10:45:24;;;;;;;53.83;29.33;;;;;;;;;;10364584;28;20088;-86
2023/01/26 10:50:25;;;;;;;55.13;28.93;;;;;;;;;;10365585;28;20029;-87
2023/01/26 10:55:26;;;;;;;67.23;30.03;;;;;;;;;;10364103;28;20515;-86
2023/01/26 11:00:35;;;;;;;60.10;33.27;;;;;;;;;;10364379;28;20049;-86
2023/01/26 11:05:36;;;;;;;44.93;22.40;;;;;;;;;;10365677;28;20556;-85
2023/01/26 11:10:38;;;;;;;64.13;34.53;;;;;;;;;;10363732;28;20030;-87
2023/01/26 11:15:42;;;;;;;72.07;29.93;;;;;;;;;;10364366;28;20389;-85
2023/01/26 11:20:46;;;;;;;59.23;25.17;;;;;;;;;;10361500;28;20030;-87
2023/01/26 11:26:09;;;;;;;56.70;26.83;;;;;;;;;;10363014;28;20029;-85
2023/01/26 11:31:29;;;;;;;48.97;24.53;;;;;;;;;;10362843;28;20682;-86
2023/01/26 11:37:01;;;;;;;61.33;33.43;;;2.70;99.90;;;;;;10362296;28;20034;-86
2023/01/26 11:42:19;;;;;;;44.20;22.93;;;;;;;;;;10362380;28;20034;-86
2023/01/26 11:47:25;;;;;;;100.33;53.70;;;;;;;;;;10361130;28;20033;-86
2023/01/26 11:52:35;;;;;;;74.05;38.47;;;;;;;;;;10362417;28;20107;-86
2023/01/26 11:57:39;;;;;;;68.17;38.10;;;;;;;;;;10361800;28;20062;-85
2023/01/26 12:02:41;;;;;;;72.53;34.20;;;;;;;;;;10360756;28;20787;-85
2023/01/26 12:13:30;;;;;;;50.57;22.97;;;;;;;;;;10363184;28;20046;-87
2023/01/26 12:18:38;;;;;;;45.40;21.33;;;2.70;99.90;;;;;;10359568;28;20030;-85
2023/01/26 12:23:51;;;;;;;42.63;19.87;;;;;;;;;;10343325;28;20030;-86
2023/01/26 12:29:11;;;;;;;49.50;21.20;;;;;;;;;;10360727;28;20523;-85
2023/01/26 12:34:12;;;;;;;42.73;20.93;;;2.50;99.90;;;;;;10359555;28;20038;-85
2023/01/26 12:39:43;;;;;;;53.67;26.77;;;2.60;99.90;;;;;;10342248;28;20132;-87
2023/01/26 12:44:51;;;;;;;78.20;40.03;;;2.70;99.90;;;;;;10334906;28;20029;-86
2023/01/26 12:50:22;;;;;;;52.47;26.20;;;2.80;99.90;;;;;;10342398;28;20053;-86
2023/01/26 12:55:26;;;;;;;46.33;24.63;;;;;;;;;;10341848;28;20072;-86
2023/01/26 13:00:31;;;;;;;50.73;23.30;;;;;;;;;;10359122;28;20030;-86
2023/01/26 13:05:34;;;;;;;40.28;20.08;;;;;;;;;;10359872;28;20092;-86
2023/01/26 13:10:44;;;;;;;46.73;21.90;;;;;;;;;;10360149;28;20108;-86
2023/01/26 13:15:45;;;;;;;48.33;22.87;;;;;;;;;;10357719;28;20110;-85
2023/01/26 13:20:47;;;;;;;45.13;22.80;;;;;;;;;;10358847;28;20564;-86
2023/01/26 13:26:06;;;;;;;94.80;45.27;;;;;;;;;;10357760;28;20030;-87
2023/01/26 13:31:08;;;;;;;62.27;31.80;;;;;;;;;;10358348;28;20044;-86
2023/01/26 13:36:15;;;;;;;81.63;43.07;;;;;;;;;;10359321;28;20037;-87
2023/01/26 13:41:20;;;;;;;60.37;32.17;;;;;;;;;;10358942;28;20515;-85
2023/01/26 13:46:29;;;;;;;49.30;25.77;;;;;;;;;;10347944;28;20042;-86
2023/01/26 13:51:32;;;;;;;48.80;25.27;;;;;;;;;;10334222;28;20440;-86
2023/01/26 13:56:34;;;;;;;73.67;37.17;;;;;;;;;;10330180;28;20140;-88
2023/01/26 14:01:41;;;;;;;83.77;41.80;;;;;;;;;;10358299;28;20112;-86
2023/01/26 14:28:59;;;;;;;71.33;32.90;;;;;;;;;;10303201;28;20129;-86
2023/01/26 14:34:00;;;;;;;59.10;27.40;;;;;;;;;;10373745;28;20690;-86
2023/01/26 14:39:01;;;;;;;54.10;26.93;;;;;;;;;;10357766;28;20045;-86
2023/01/26 14:44:04;;;;;;;60.50;28.47;;;;;;;;;;10393893;28;20030;-86
2023/01/26 14:49:12;;;;;;;100.53;48.10;;;;;;;;;;10403812;28;20108;-87
2023/01/26 14:54:33;;;;;;;87.77;41.67;;;;;;;;;;10387592;28;20044;-87
2023/01/26 14:59:37;;;;;;;119.57;53.50;;;;;;;;;;10371799;28;20037;-87
2023/01/26 15:04:39;;;;;;;108.13;51.87;;;;;;;;;;10342278;28;20053;-86
2023/01/26 15:09:40;;;;;;;82.80;37.37;;;;;;;;;;10357751;28;20041;-87
2023/01/26 15:14:57;;;;;;;70.13;31.40;;;;;;;;;;10401057;28;20135;-87
2023/01/26 15:19:58;;;;;;;64.87;30.53;;;;;;;;;;10390181;28;20563;-86
2023/01/26 15:25:17;;;;;;;92.57;43.80;;;;;;;;;;10376460;28;20038;-86
2023/01/26 15:30:19;;;;;;;348.63;161.93;;;;;;;;;;10358881;28;20040;-87
2023/01/26 15:35:22;;;;;;;183.27;79.70;;;;;;;;;;10391873;28;20038;-86
2023/01/26 15:40:23;;;;;;;76.07;34.70;;;;;;;;;;10376403;28;20033;-87
2023/01/26 15:45:25;;;;;;;134.03;57.50;;;;;;;;;;10367829;28;20033;-86
2023/01/26 15:50:26;;;;;;;62.27;30.07;;;;;;;;;;10389725;28;20053;-86
2023/01/26 15:55:29;;;;;;;68.90;32.17;;;;;;;;;;10349825;28;20045;-86
2023/01/26 16:00:30;;;;;;;86.03;40.13;;;;;;;;;;10341768;28;20038;-85
2023/01/26 16:05:31;;;;;;;99.07;44.13;;;;;;;;;;10373485;28;20026;-87
2023/01/26 16:10:32;;;;;;;124.67;58.07;;;;;;;;;;10375737;28;20044;-86
2023/01/26 16:15:43;;;;;;;170.97;72.53;;;;;;;;;;10377252;28;20116;-86
2023/01/26 16:20:45;;;;;;;151.57;70.17;;;;;;;;;;10382673;28;20089;-87
2023/01/26 16:25:47;;;;;;;117.97;57.33;;;;;;;;;;10373682;28;20081;-84
2023/01/26 16:30:51;;;;;;;105.17;48.53;;;;;;;;;;10353148;28;20044;-86
2023/01/26 16:35:53;;;;;;;97.40;45.20;;;;;;;;;;10375849;28;20044;-89
2023/01/26 16:40:54;;;;;;;100.07;47.37;;;;;;;;;;10374211;28;20077;-82
2023/01/26 16:45:56;;;;;;;109.73;45.73;;;;;;;;;;10387388;28;20121;-87
2023/01/26 16:50:57;;;;;;;107.87;48.90;;;;;;;;;;10370012;28;20034;-85
2023/01/26 16:55:58;;;;;;;92.50;44.23;;;;;;;;;;10345978;28;20040;-87
2023/01/26 17:01:01;;;;;;;90.40;40.53;;;;;;;;;;10396077;28;20050;-86
2023/01/26 17:06:02;;;;;;;87.33;38.63;;;;;;;;;;10377522;28;20087;-88
2023/01/26 17:11:03;;;;;;;86.20;38.83;;;;;;;;;;10377564;28;20033;-86
2023/01/26 17:16:04;;;;;;;84.43;38.57;;;;;;;;;;10402815;28;20052;-85
2023/01/26 17:21:05;;;;;;;84.20;36.60;;;;;;;;;;10404309;28;20059;-87
2023/01/26 17:26:06;;;;;;;72.27;32.37;;;;;;;;;;10375014;28;20048;-86
2023/01/26 17:31:09;;;;;;;74.07;32.17;;;;;;;;;;10382246;28;20519;-87
2023/01/26 17:36:10;;;;;;;73.10;34.50;;;;;;;;;;10398032;28;20043;-88
2023/01/26 17:41:11;;;;;;;82.43;36.70;;;;;;;;;;10377670;28;20045;-87
2023/01/26 17:46:15;;;;;;;93.53;41.20;;;;;;;;;;10375586;28;20036;-86
2023/01/26 17:51:18;;;;;;;107.47;45.70;;;;;;;;;;10385356;28;20033;-85
2023/01/26 17:56:20;;;;;;;103.37;42.77;;;;;;;;;;10400171;23;20068;-84
2023/01/26 18:01:22;;;;;;;108.17;46.63;;;;;;;;;;10345056;28;20425;-84
2023/01/26 18:06:23;;;;;;;109.43;48.43;;;;;;;;;;10338409;28;20604;-86
2023/01/26 18:11:24;;;;;;;111.70;46.03;;;;;;;;;;10359249;28;20083;-89
2023/01/26 18:33:58;;;;;;;96.00;40.83;;;;;;;;;;10350327;28;20054;-87
2023/01/26 18:44:38;;;;;;;98.07;40.70;;;;;;;;;;10198734;29;20040;-86
2023/01/26 18:49:39;;;;;;;96.10;41.00;;;1.30;99.90;;;;;;10199384;29;20059;-89
2023/01/26 18:54:41;;;;;;;84.17;39.83;;;1.20;99.90;;;;;;10185425;29;20066;-87
2023/01/26 18:59:42;;;;;;;79.87;34.53;;;1.20;99.90;;;;;;10220611;28;20085;-89
2023/01/26 19:04:43;;;;;;;77.63;34.90;;;1.20;99.90;;;;;;10221370;28;20097;-88
2023/01/26 19:09:44;;;;;;;77.00;34.87;;;1.20;99.90;;;;;;10236540;28;20133;-87
2023/01/26 19:14:44;;;;;;;86.07;39.13;;;1.30;99.90;;;;;;10276155;28;20049;-88
2023/01/26 19:19:46;;;;;;;85.67;38.23;;;1.30;99.90;;;;;;10324169;28;20668;-89
2023/01/26 19:24:47;;;;;;;91.50;41.43;;;1.30;99.90;;;;;;10321133;28;20044;-89
2023/01/26 19:29:50;;;;;;;86.87;40.67;;;1.40;99.90;;;;;;10338180;28;20302;-89
2023/01/26 19:34:50;;;;;;;99.60;41.87;;;1.30;99.90;;;;;;10320219;28;20049;-86
2023/01/26 19:39:51;;;;;;;98.90;44.83;;;1.20;99.90;;;;;;10322838;28;20393;-88
2023/01/26 19:44:52;;;;;;;100.03;45.57;;;1.10;99.90;;;;;;10321132;28;20031;-90
2023/01/26 19:49:52;;;;;;;97.73;41.27;;;1.20;99.90;;;;;;10319392;28;20088;-86
2023/01/26 19:54:53;;;;;;;103.57;44.93;;;1.10;99.90;;;;;;10321101;28;20061;-88
2023/01/26 19:59:53;;;;;;;94.43;43.10;;;1.20;99.90;;;;;;10303496;28;20030;-88
2023/01/26 20:04:54;;;;;;;89.93;40.33;;;1.20;99.90;;;;;;10319526;28;20026;-89
2023/01/26 20:09:54;;;;;;;96.90;43.67;;;1.10;99.90;;;;;;10302591;28;20030;-88
2023/01/26 20:14:55;;;;;;;109.13;50.03;;;1.10;99.90;;;;;;10320674;28;20661;-89
2023/01/26 20:19:55;;;;;;;96.37;43.53;;;1.10;99.90;;;;;;10320464;28;20467;-89
2023/01/26 20:24:56;;;;;;;97.87;43.00;;;1.10;99.90;;;;;;10303141;28;20196;-89
2023/01/26 20:29:56;;;;;;;114.03;54.07;;;1.00;99.90;;;;;;10319922;28;20046;-89
2023/01/26 20:34:57;;;;;;;104.70;47.17;;;1.10;99.90;;;;;;10301889;28;20482;-90
2023/01/26 20:39:58;;;;;;;111.50;49.33;;;1.10;99.90;;;;;;10318093;28;20026;-89
2023/01/26 20:44:58;;;;;;;95.63;43.87;;;1.00;99.90;;;;;;10315314;28;20031;-89
2023/01/26 20:49:59;;;;;;;112.37;48.17;;;1.00;99.90;;;;;;10295980;28;20097;-89
2023/01/26 20:55:00;;;;;;;94.37;42.77;;;1.10;99.90;;;;;;10316095;28;20441;-89
2023/01/26 21:00:01;;;;;;;90.57;42.57;;;1.10;99.90;;;;;;10300744;28;20437;-88
2023/01/26 21:05:02;;;;;;;103.70;45.67;;;1.00;99.90;;;;;;10311745;28;20042;-88
2023/01/26 21:10:03;;;;;;;92.63;45.53;;;1.10;99.90;;;;;;10317176;28;20364;-88
2023/01/26 21:15:07;;;;;;;90.53;43.23;;;1.00;99.90;;;;;;10317375;28;20481;-88
2023/01/26 21:20:08;;;;;;;91.87;41.30;;;1.10;99.90;;;;;;10300676;28;20027;-89
2023/01/26 21:25:10;;;;;;;113.83;51.53;;;1.00;99.90;;;;;;10318004;28;20066;-89
2023/01/26 21:30:11;;;;;;;105.37;48.40;;;1.00;99.90;;;;;;10316258;28;20808;-89
2023/01/26 21:35:14;;;;;;;104.60;47.50;;;1.10;99.90;;;;;;10317449;28;20093;-89
2023/01/26 21:40:15;;;;;;;108.43;48.47;;;1.00;99.90;;;;;;10300262;28;20038;-89
2023/01/26 21:55:54;;;;;;;117.93;52.27;;;1.00;99.90;;;;;;10313101;28;20054;-89
2023/01/26 22:01:07;;;;;;;107.43;49.20;;;1.00;99.90;;;;;;10299181;28;20078;-90
2023/01/26 22:06:08;;;;;;;121.60;50.97;;;0.90;99.90;;;;;;10318088;28;20069;-88
2023/01/26 22:11:08;;;;;;;128.43;54.87;;;0.80;99.90;;;;;;10315504;28;20132;-89
2023/01/26 22:16:09;;;;;;;122.90;54.07;;;0.80;99.90;;;;;;10316551;28;20051;-89
2023/01/26 22:21:10;;;;;;;133.03;59.97;;;0.80;99.90;;;;;;10317762;28;20089;-89
2023/01/26 22:26:18;;;;;;;129.03;58.83;;;0.80;99.90;;;;;;10324853;28;20041;-90
2023/01/26 22:31:21;;;;;;;132.90;56.80;;;0.70;99.90;;;;;;10306593;28;20058;-89
2023/01/26 22:36:24;;;;;;;140.10;56.63;;;0.70;99.90;;;;;;10306856;28;20096;-89
2023/01/26 22:41:27;;;;;;;123.53;53.53;;;0.60;99.90;;;;;;10322432;28;20112;-88
2023/01/26 22:46:29;;;;;;;127.53;56.20;;;0.60;99.90;;;;;;10305290;28;20038;-88
2023/01/26 22:51:31;;;;;;;136.17;60.03;;;0.60;99.90;;;;;;10322420;28;20396;-88
2023/01/26 22:56:32;;;;;;;127.00;56.50;;;0.60;99.90;;;;;;10297347;28;20597;-89
2023/01/26 23:01:33;;;;;;;130.00;57.27;;;0.60;99.90;;;;;;10322229;28;20023;-90
2023/01/26 23:06:33;;;;;;;116.77;52.70;;;0.70;99.90;;;;;;10305900;28;20456;-88
2023/01/26 23:11:34;;;;;;;109.30;52.10;;;0.60;99.90;;;;;;10318952;28;20038;-88
2023/01/26 23:16:35;;;;;;;122.43;53.87;;;0.70;99.90;;;;;;10320051;28;20034;-88
2023/01/26 23:21:35;;;;;;;125.67;54.50;;;0.70;99.90;;;;;;10304981;28;20713;-88
2023/01/26 23:26:36;;;;;;;138.10;60.57;;;0.60;99.90;;;;;;10302441;28;20042;-89
2023/01/26 23:31:36;;;;;;;121.10;54.47;;;0.50;99.90;;;;;;10320172;28;20041;-89
2023/01/26 23:36:37;;;;;;;118.03;54.10;;;0.60;99.90;;;;;;10304302;28;20034;-88
2023/01/26 23:41:38;;;;;;;125.20;54.70;;;0.50;99.90;;;;;;10304588;28;20026;-89
2023/01/26 23:46:38;;;;;;;125.77;55.57;;;0.50;99.90;;;;;;10303921;28;20376;-89
2023/01/26 23:51:39;;;;;;;130.63;57.40;;;0.40;99.90;;;;;;10304938;28;20493;-90
2023/01/26 23:56:39;;;;;;;117.57;53.67;;;0.30;99.90;;;;;;10320965;28;20062;-88
